TimeCDT,TemperatureF,Dew PointF,Humidity,Sea Level PressureIn,VisibilityMPH,Wind Direction,Wind SpeedMPH,Gust SpeedMPH,PrecipitationIn,Events,Conditions,WindDirDegrees,DateUTC
12:15 AM,59.9,57.2,91,30.13,10.0,Calm,Calm,-,N/A,,Clear,0,2013-08-19 05:15:00
12:35 AM,59.7,56.5,89,30.13,10.0,Calm,Calm,-,N/A,,Clear,0,2013-08-19 05:35:00
12:55 AM,59.2,57.4,94,30.13,7.0,Calm,Calm,-,N/A,,Clear,0,2013-08-19 05:55:00
1:15 AM,59.0,57.2,94,30.13,10.0,Calm,Calm,-,N/A,,Clear,0,2013-08-19 06:15:00
1:35 AM,58.1,56.5,94,30.12,10.0,Calm,Calm,-,N/A,,Clear,0,2013-08-19 06:35:00
1:55 AM,58.1,55.9,93,30.12,10.0,Calm,Calm,-,N/A,,Clear,0,2013-08-19 06:55:00
2:15 AM,58.1,56.1,93,30.12,10.0,SSE,3.5,-,N/A,,Clear,150,2013-08-19 07:15:00
2:35 AM,60.1,56.1,87,30.12,10.0,Calm,Calm,-,N/A,,Clear,0,2013-08-19 07:35:00
2:55 AM,59.0,55.8,89,30.12,10.0,South,3.5,-,N/A,,Clear,170,2013-08-19 07:55:00
3:15 AM,58.3,55.2,90,30.11,10.0,Calm,Calm,-,N/A,,Clear,0,2013-08-19 08:15:00
3:35 AM,57.4,56.1,96,30.11,7.0,Calm,Calm,-,N/A,,Clear,0,2013-08-19 08:35:00
3:55 AM,57.4,55.9,95,30.11,10.0,Calm,Calm,-,N/A,,Clear,0,2013-08-19 08:55:00
4:15 AM,56.7,55.4,96,30.12,5.0,Calm,Calm,-,N/A,,Clear,0,2013-08-19 09:15:00
4:35 AM,57.2,55.9,96,30.11,5.0,Calm,Calm,-,N/A,,Clear,0,2013-08-19 09:35:00
4:55 AM,55.4,54.1,96,30.11,7.0,Calm,Calm,-,N/A,,Clear,0,2013-08-19 09:55:00
5:15 AM,56.5,55.4,96,30.12,7.0,Calm,Calm,-,N/A,,Clear,0,2013-08-19 10:15:00
5:35 AM,56.1,54.9,96,30.12,5.0,Calm,Calm,-,N/A,,Clear,0,2013-08-19 10:35:00
5:55 AM,55.9,54.9,96,30.13,4.0,Calm,Calm,-,N/A,,Clear,0,2013-08-19 10:55:00
6:15 AM,56.3,55.2,96,30.13,3.0,Calm,Calm,-,N/A,,Clear,0,2013-08-19 11:15:00
6:35 AM,56.8,55.8,96,30.13,4.0,Calm,Calm,-,N/A,,Clear,0,2013-08-19 11:35:00
6:55 AM,56.7,55.6,96,30.13,5.0,Calm,Calm,-,N/A,,Clear,0,2013-08-19 11:55:00
7:15 AM,58.8,57.6,96,30.14,7.0,Calm,Calm,-,N/A,,Clear,0,2013-08-19 12:15:00
7:35 AM,61.3,59.4,93,30.14,7.0,Calm,Calm,-,N/A,,Clear,0,2013-08-19 12:35:00
7:55 AM,64.6,60.1,85,30.14,7.0,Calm,Calm,-,N/A,,Clear,0,2013-08-19 12:55:00
8:15 AM,67.1,61.7,83,30.14,10.0,Calm,Calm,-,N/A,,Clear,0,2013-08-19 13:15:00
8:35 AM,68.7,63.0,82,30.14,10.0,SSW,4.6,-,N/A,,Clear,200,2013-08-19 13:35:00
8:55 AM,70.7,63.3,77,30.14,10.0,SW,5.8,-,N/A,,Clear,220,2013-08-19 13:55:00
9:15 AM,71.8,63.3,75,30.14,10.0,SSW,5.8,-,N/A,,Clear,210,2013-08-19 14:15:00
9:35 AM,73.9,63.9,71,30.14,10.0,SSW,4.6,-,N/A,,Clear,200,2013-08-19 14:35:00
9:55 AM,75.4,63.1,66,30.14,10.0,South,4.6,-,N/A,,Clear,190,2013-08-19 14:55:00
10:15 AM,76.5,62.2,61,30.14,10.0,SW,5.8,-,N/A,,Clear,220,2013-08-19 15:15:00
10:35 AM,77.9,63.7,61,30.14,10.0,WSW,5.8,-,N/A,,Clear,250,2013-08-19 15:35:00
10:55 AM,79.9,63.0,56,30.13,10.0,SW,6.9,-,N/A,,Clear,230,2013-08-19 15:55:00
11:15 AM,79.7,62.8,56,30.13,10.0,SSW,5.8,-,N/A,,Clear,210,2013-08-19 16:15:00
11:35 AM,79.7,63.0,56,30.13,10.0,WSW,5.8,-,N/A,,Clear,240,2013-08-19 16:35:00
11:55 AM,79.7,60.8,52,30.13,10.0,SSW,5.8,-,N/A,,Scattered Clouds,200,2013-08-19 16:55:00
12:15 PM,81.1,61.2,51,30.12,10.0,SW,4.6,-,N/A,,Mostly Cloudy,230,2013-08-19 17:15:00
12:35 PM,80.2,61.7,53,30.12,10.0,SW,5.8,-,N/A,,Mostly Cloudy,230,2013-08-19 17:35:00
12:55 PM,81.5,62.1,52,30.11,10.0,South,5.8,-,N/A,,Mostly Cloudy,180,2013-08-19 17:55:00
1:15 PM,82.6,61.5,49,30.11,10.0,WSW,6.9,-,N/A,,Mostly Cloudy,240,2013-08-19 18:15:00
1:35 PM,81.9,61.9,51,30.11,10.0,SSW,5.8,-,N/A,,Mostly Cloudy,210,2013-08-19 18:35:00
1:55 PM,80.8,61.3,51,30.10,10.0,South,3.5,-,N/A,,Scattered Clouds,190,2013-08-19 18:55:00
2:15 PM,81.3,61.2,50,30.10,10.0,South,6.9,-,N/A,,Mostly Cloudy,190,2013-08-19 19:15:00
2:35 PM,82.9,61.2,48,30.09,10.0,South,8.1,-,N/A,,Scattered Clouds,190,2013-08-19 19:35:00
2:55 PM,80.8,61.2,51,30.09,10.0,SSW,5.8,-,N/A,,Scattered Clouds,210,2013-08-19 19:55:00
3:15 PM,82.0,62.1,51,30.08,10.0,SSW,9.2,-,N/A,,Mostly Cloudy,200,2013-08-19 20:15:00
3:35 PM,81.9,61.2,49,30.08,10.0,South,5.8,-,N/A,,Scattered Clouds,180,2013-08-19 20:35:00
3:55 PM,80.8,62.4,53,30.07,10.0,South,5.8,-,N/A,,Scattered Clouds,170,2013-08-19 20:55:00
4:15 PM,81.5,63.0,53,30.07,10.0,South,8.1,-,N/A,,Scattered Clouds,190,2013-08-19 21:15:00
4:35 PM,81.3,62.6,53,30.06,10.0,South,5.8,-,N/A,,Scattered Clouds,170,2013-08-19 21:35:00
4:55 PM,81.7,62.4,52,30.06,10.0,SSW,6.9,-,N/A,,Clear,200,2013-08-19 21:55:00
5:15 PM,82.2,62.8,52,30.06,10.0,South,6.9,-,N/A,,Scattered Clouds,190,2013-08-19 22:15:00
5:35 PM,81.3,62.1,52,30.06,10.0,South,4.6,-,N/A,,Scattered Clouds,170,2013-08-19 22:35:00
5:55 PM,78.1,62.4,58,30.06,10.0,South,4.6,-,N/A,,Scattered Clouds,180,2013-08-19 22:55:00
6:15 PM,77.0,63.3,63,30.06,10.0,South,3.5,-,N/A,,Clear,170,2013-08-19 23:15:00
6:35 PM,78.1,64.0,62,30.05,10.0,South,3.5,-,N/A,,Clear,170,2013-08-19 23:35:00
6:55 PM,77.7,64.2,63,30.05,10.0,South,3.5,-,N/A,,Clear,170,2013-08-19 23:55:00
7:15 PM,76.1,64.8,68,30.05,10.0,South,3.5,-,N/A,,Clear,170,2013-08-20 00:15:00
7:35 PM,75.2,64.4,69,30.05,10.0,SSE,3.5,-,N/A,,Clear,150,2013-08-20 00:35:00
7:55 PM,74.5,63.9,69,30.05,10.0,SE,3.5,-,N/A,,Clear,140,2013-08-20 00:55:00
8:15 PM,73.4,63.5,71,30.05,10.0,SSE,3.5,-,N/A,,Clear,150,2013-08-20 01:15:00
8:35 PM,72.3,63.5,74,30.05,10.0,SSE,3.5,-,N/A,,Clear,150,2013-08-20 01:35:00
8:55 PM,71.4,63.5,76,30.06,10.0,SSE,4.6,-,N/A,,Clear,150,2013-08-20 01:55:00
9:15 PM,70.7,63.5,78,30.06,10.0,SSE,4.6,-,N/A,,Clear,150,2013-08-20 02:15:00
9:35 PM,70.2,63.0,78,30.06,10.0,SSE,3.5,-,N/A,,Clear,150,2013-08-20 02:35:00
9:55 PM,69.4,63.0,80,30.07,10.0,SSE,4.6,-,N/A,,Clear,150,2013-08-20 02:55:00
10:15 PM,68.9,62.8,81,30.07,10.0,SSE,4.6,-,N/A,,Clear,150,2013-08-20 03:15:00
10:35 PM,68.9,62.8,81,30.07,10.0,SSE,4.6,-,N/A,,Clear,150,2013-08-20 03:35:00
10:55 PM,68.4,62.6,82,30.07,10.0,SSE,3.5,-,N/A,,Clear,150,2013-08-20 03:55:00
11:15 PM,68.0,62.6,83,30.07,10.0,SSE,3.5,-,N/A,,Clear,150,2013-08-20 04:15:00
11:35 PM,68.0,62.6,83,30.07,10.0,SSE,4.6,-,N/A,,Clear,150,2013-08-20 04:35:00
11:55 PM,67.5,62.6,84,30.07,10.0,SSE,4.6,-,N/A,,Clear,150,2013-08-20 04:55:00